Kezdőlap
METAR-TAF:

METAR-TAF

Repülőterek :

Morlaix, Franciaország

földrajzi szélesség: 48-36N, földrajzi hosszúság: 3-49W, magasság: 84 m

Jelenlegi meteorológiai megfigyelések

A jelentés 8 órával és 33 perccel ezelõtt készült, 18:00 UTC
Nyugati szél 17 kt
Hőmérséklet 7°C
Páratartalom 87%
Légköri nyomás 1009 hPa
Látótávolság 10 km, vagy több

METAR: LFRU 281800Z AUTO 28017KT 9999 FEW023/// BKN033/// BKN046/// ///TCU 07/05 Q1009

Idő: 03:33 (02:33 UTC)


TAF: hiányzik

Meteorológiai megfigyelések és előrejelzések több, mint 4000 repülőtéren (METAR és TAF jelentéseket).

A térképen piros és sárga pontok jelzik az elérhető meteorológiai állomásokat.

Mozgassa az egeret a pont fölött, hogy megjelenjen az állomás neve.

Azután kattintson az időjárási megfigyelések és előrejelzések megtekintéséhez.

A térkép megváltoztatása: kattintson a fekete keresztel jelölt zöld gombra ráközelítéshez, a vonallal jelölt zöld gombra távolításhoz, vagy a zöld nyilakra a szomszédos térképek eléréséhez.


METAR-TAF: